sensor_id;sensor_type;location;lat;lon;timestamp;pressure;altitude;pressure_sealevel;temperature;humidity
79376;BME280;68846;53.150;18.136;2024-03-02T00:01:42;100671.02;;;7.92;82.68
79376;BME280;68846;53.150;18.136;2024-03-02T00:04:10;100672.73;;;7.91;82.66
79376;BME280;68846;53.150;18.136;2024-03-02T00:06:38;100674.64;;;7.90;82.89
79376;BME280;68846;53.150;18.136;2024-03-02T00:09:09;100670.94;;;7.88;82.95
79376;BME280;68846;53.150;18.136;2024-03-02T00:11:37;100673.75;;;7.88;82.98
79376;BME280;68846;53.150;18.136;2024-03-02T00:14:05;100670.92;;;7.88;82.92
79376;BME280;68846;53.150;18.136;2024-03-02T00:18:19;100671.16;;;7.91;83.40
79376;BME280;68846;53.150;18.136;2024-03-02T00:20:48;100669.55;;;7.89;83.31
79376;BME280;68846;53.150;18.136;2024-03-02T00:23:16;100670.94;;;7.88;83.53
79376;BME280;68846;53.150;18.136;2024-03-02T00:25:49;100667.78;;;7.89;83.17
79376;BME280;68846;53.150;18.136;2024-03-02T00:28:50;100669.35;;;7.88;83.11
79376;BME280;68846;53.150;18.136;2024-03-02T00:31:22;100662.81;;;7.86;83.22
79376;BME280;68846;53.150;18.136;2024-03-02T00:33:49;100662.08;;;7.85;83.15
79376;BME280;68846;53.150;18.136;2024-03-02T00:36:27;100663.32;;;7.85;83.40
79376;BME280;68846;53.150;18.136;2024-03-02T00:38:55;100659.48;;;7.85;83.20
79376;BME280;68846;53.150;18.136;2024-03-02T00:41:30;100656.83;;;7.85;83.13
79376;BME280;68846;53.150;18.136;2024-03-02T00:44:04;100656.98;;;7.84;83.49
79376;BME280;68846;53.150;18.136;2024-03-02T00:46:38;100653.64;;;7.83;83.62
79376;BME280;68846;53.150;18.136;2024-03-02T00:49:24;100654.70;;;7.84;83.39
79376;BME280;68846;53.150;18.136;2024-03-02T00:51:53;100663.27;;;7.82;83.78
79376;BME280;68846;53.150;18.136;2024-03-02T00:54:24;100666.53;;;7.79;83.63
79376;BME280;68846;53.150;18.136;2024-03-02T00:56:53;100668.61;;;7.78;83.94
79376;BME280;68846;53.150;18.136;2024-03-02T00:59:23;100665.94;;;7.76;83.92
79376;BME280;68846;53.150;18.136;2024-03-02T01:01:51;100666.23;;;7.73;84.19
79376;BME280;68846;53.150;18.136;2024-03-02T01:04:19;100659.51;;;7.71;84.17
79376;BME280;68846;53.150;18.136;2024-03-02T01:06:47;100655.39;;;7.67;84.24
79376;BME280;68846;53.150;18.136;2024-03-02T01:09:15;100649.21;;;7.65;84.33
79376;BME280;68846;53.150;18.136;2024-03-02T01:11:46;100643.04;;;7.63;84.04
79376;BME280;68846;53.150;18.136;2024-03-02T01:14:16;100636.34;;;7.61;84.42
79376;BME280;68846;53.150;18.136;2024-03-02T01:16:48;100632.62;;;7.60;84.46
79376;BME280;68846;53.150;18.136;2024-03-02T01:19:16;100631.89;;;7.58;84.80
79376;BME280;68846;53.150;18.136;2024-03-02T01:21:44;100632.24;;;7.58;84.61
79376;BME280;68846;53.150;18.136;2024-03-02T01:24:12;100632.55;;;7.57;84.00
79376;BME280;68846;53.150;18.136;2024-03-02T01:26:40;100628.84;;;7.55;84.33
79376;BME280;68846;53.150;18.136;2024-03-02T01:29:08;100628.63;;;7.53;84.41
79376;BME280;68846;53.150;18.136;2024-03-02T01:31:36;100630.86;;;7.51;84.29
79376;BME280;68846;53.150;18.136;2024-03-02T01:34:05;100624.54;;;7.50;84.55
79376;BME280;68846;53.150;18.136;2024-03-02T01:36:33;100625.58;;;7.50;84.34
79376;BME280;68846;53.150;18.136;2024-03-02T01:39:01;100619.83;;;7.51;84.57
79376;BME280;68846;53.150;18.136;2024-03-02T01:41:29;100608.10;;;7.52;84.61
79376;BME280;68846;53.150;18.136;2024-03-02T01:43:57;100603.91;;;7.53;84.69
79376;BME280;68846;53.150;18.136;2024-03-02T01:46:26;100599.54;;;7.54;84.62
79376;BME280;68846;53.150;18.136;2024-03-02T01:48:54;100601.64;;;7.54;84.95
79376;BME280;68846;53.150;18.136;2024-03-02T01:51:22;100591.84;;;7.54;84.55
79376;BME280;68846;53.150;18.136;2024-03-02T01:53:49;100601.11;;;7.54;84.43
79376;BME280;68846;53.150;18.136;2024-03-02T01:56:17;100605.31;;;7.53;84.86
79376;BME280;68846;53.150;18.136;2024-03-02T01:58:45;100605.97;;;7.51;84.65
79376;BME280;68846;53.150;18.136;2024-03-02T02:01:13;100610.33;;;7.50;84.71
79376;BME280;68846;53.150;18.136;2024-03-02T02:03:41;100609.65;;;7.51;84.50
79376;BME280;68846;53.150;18.136;2024-03-02T02:06:11;100606.70;;;7.53;84.50
79376;BME280;68846;53.150;18.136;2024-03-02T02:08:39;100604.48;;;7.55;84.73
79376;BME280;68846;53.150;18.136;2024-03-02T02:11:07;100606.33;;;7.59;84.45
79376;BME280;68846;53.150;18.136;2024-03-02T02:13:35;100609.35;;;7.61;84.30
79376;BME280;68846;53.150;18.136;2024-03-02T02:16:08;100603.63;;;7.64;84.17
79376;BME280;68846;53.150;18.136;2024-03-02T02:18:36;100605.39;;;7.65;84.11
79376;BME280;68846;53.150;18.136;2024-03-02T02:21:04;100607.21;;;7.67;84.25
79376;BME280;68846;53.150;18.136;2024-03-02T02:23:32;100608.81;;;7.69;83.72
79376;BME280;68846;53.150;18.136;2024-03-02T02:26:00;100604.54;;;7.66;83.85
79376;BME280;68846;53.150;18.136;2024-03-02T02:28:28;100600.60;;;7.62;83.85
79376;BME280;68846;53.150;18.136;2024-03-02T02:30:55;100605.22;;;7.57;83.63
79376;BME280;68846;53.150;18.136;2024-03-02T02:33:23;100608.45;;;7.52;83.90
79376;BME280;68846;53.150;18.136;2024-03-02T02:35:51;100607.14;;;7.49;83.74
79376;BME280;68846;53.150;18.136;2024-03-02T02:38:19;100608.69;;;7.47;83.75
79376;BME280;68846;53.150;18.136;2024-03-02T02:40:47;100607.59;;;7.45;84.01
79376;BME280;68846;53.150;18.136;2024-03-02T02:43:15;100609.27;;;7.42;83.65
79376;BME280;68846;53.150;18.136;2024-03-02T02:45:44;100607.71;;;7.43;84.22
79376;BME280;68846;53.150;18.136;2024-03-02T02:48:13;100599.80;;;7.42;83.94
79376;BME280;68846;53.150;18.136;2024-03-02T02:50:41;100605.59;;;7.42;84.30
79376;BME280;68846;53.150;18.136;2024-03-02T02:53:09;100604.52;;;7.41;84.03
79376;BME280;68846;53.150;18.136;2024-03-02T02:55:39;100604.50;;;7.40;84.03
79376;BME280;68846;53.150;18.136;2024-03-02T02:58:09;100608.27;;;7.36;83.97
79376;BME280;68846;53.150;18.136;2024-03-02T03:00:37;100607.68;;;7.34;83.91
79376;BME280;68846;53.150;18.136;2024-03-02T03:03:04;100602.51;;;7.29;84.05
79376;BME280;68846;53.150;18.136;2024-03-02T03:05:32;100600.85;;;7.26;83.92
79376;BME280;68846;53.150;18.136;2024-03-02T03:08:00;100603.55;;;7.21;83.93
79376;BME280;68846;53.150;18.136;2024-03-02T03:10:28;100604.86;;;7.18;84.00
79376;BME280;68846;53.150;18.136;2024-03-02T03:12:55;100607.40;;;7.14;84.18
79376;BME280;68846;53.150;18.136;2024-03-02T03:15:24;100600.12;;;7.10;84.08
79376;BME280;68846;53.150;18.136;2024-03-02T03:17:53;100605.88;;;7.08;84.16
79376;BME280;68846;53.150;18.136;2024-03-02T03:20:21;100613.89;;;7.07;83.96
79376;BME280;68846;53.150;18.136;2024-03-02T03:22:51;100618.23;;;7.05;83.89
79376;BME280;68846;53.150;18.136;2024-03-02T03:25:18;100614.12;;;7.02;84.19
79376;BME280;68846;53.150;18.136;2024-03-02T03:27:46;100609.16;;;7.00;84.48
79376;BME280;68846;53.150;18.136;2024-03-02T03:30:14;100609.64;;;6.97;84.58
79376;BME280;68846;53.150;18.136;2024-03-02T03:32:42;100607.81;;;6.95;84.43
79376;BME280;68846;53.150;18.136;2024-03-02T03:35:10;100603.61;;;6.94;84.83
79376;BME280;68846;53.150;18.136;2024-03-02T03:37:37;100600.28;;;6.94;84.68
79376;BME280;68846;53.150;18.136;2024-03-02T03:40:06;100597.98;;;6.94;85.02
79376;BME280;68846;53.150;18.136;2024-03-02T03:42:38;100597.16;;;6.95;84.61
79376;BME280;68846;53.150;18.136;2024-03-02T03:45:06;100596.35;;;6.99;84.51
79376;BME280;68846;53.150;18.136;2024-03-02T03:47:34;100588.02;;;7.02;84.58
79376;BME280;68846;53.150;18.136;2024-03-02T03:50:02;100588.08;;;7.04;84.71
79376;BME280;68846;53.150;18.136;2024-03-02T03:52:34;100590.20;;;7.05;84.62
79376;BME280;68846;53.150;18.136;2024-03-02T03:55:06;100586.54;;;7.05;84.63
79376;BME280;68846;53.150;18.136;2024-03-02T03:57:33;100586.59;;;7.08;84.53
79376;BME280;68846;53.150;18.136;2024-03-02T04:00:02;100580.48;;;7.09;84.22
79376;BME280;68846;53.150;18.136;2024-03-02T04:02:39;100579.11;;;7.09;84.03
79376;BME280;68846;53.150;18.136;2024-03-02T04:05:07;100576.83;;;7.09;84.40
79376;BME280;68846;53.150;18.136;2024-03-02T04:07:38;100581.16;;;7.07;84.34
79376;BME280;68846;53.150;18.136;2024-03-02T04:10:09;100577.46;;;7.07;83.98
79376;BME280;68846;53.150;18.136;2024-03-02T04:12:37;100575.09;;;7.10;84.14
79376;BME280;68846;53.150;18.136;2024-03-02T04:15:05;100575.30;;;7.11;84.52
79376;BME280;68846;53.150;18.136;2024-03-02T04:17:34;100574.29;;;7.13;84.52
79376;BME280;68846;53.150;18.136;2024-03-02T04:20:03;100573.13;;;7.16;84.17
79376;BME280;68846;53.150;18.136;2024-03-02T04:22:34;100574.39;;;7.18;84.23
79376;BME280;68846;53.150;18.136;2024-03-02T04:25:03;100575.30;;;7.19;84.20
79376;BME280;68846;53.150;18.136;2024-03-02T04:27:32;100573.42;;;7.20;84.14
79376;BME280;68846;53.150;18.136;2024-03-02T04:30:00;100575.19;;;7.21;83.81
79376;BME280;68846;53.150;18.136;2024-03-02T04:32:28;100574.50;;;7.22;83.64
79376;BME280;68846;53.150;18.136;2024-03-02T04:34:56;100578.02;;;7.23;83.86
79376;BME280;68846;53.150;18.136;2024-03-02T04:37:23;100576.09;;;7.23;83.81
79376;BME280;68846;53.150;18.136;2024-03-02T04:39:51;100562.80;;;7.24;83.61
79376;BME280;68846;53.150;18.136;2024-03-02T04:42:19;100565.49;;;7.27;83.78
79376;BME280;68846;53.150;18.136;2024-03-02T04:44:47;100565.89;;;7.29;83.67
79376;BME280;68846;53.150;18.136;2024-03-02T04:47:14;100572.73;;;7.30;83.66
79376;BME280;68846;53.150;18.136;2024-03-02T04:49:42;100579.73;;;7.29;83.61
79376;BME280;68846;53.150;18.136;2024-03-02T04:52:10;100586.48;;;7.26;83.52
79376;BME280;68846;53.150;18.136;2024-03-02T04:54:39;100584.15;;;7.23;83.54
79376;BME280;68846;53.150;18.136;2024-03-02T04:57:25;100583.45;;;7.23;83.80
79376;BME280;68846;53.150;18.136;2024-03-02T04:59:54;100582.20;;;7.22;84.02
79376;BME280;68846;53.150;18.136;2024-03-02T05:02:22;100583.10;;;7.23;83.59
79376;BME280;68846;53.150;18.136;2024-03-02T05:04:50;100583.46;;;7.24;83.73
79376;BME280;68846;53.150;18.136;2024-03-02T05:07:18;100588.90;;;7.24;83.59
79376;BME280;68846;53.150;18.136;2024-03-02T05:09:45;100595.21;;;7.25;83.68
79376;BME280;68846;53.150;18.136;2024-03-02T05:12:15;100594.55;;;7.26;83.84
79376;BME280;68846;53.150;18.136;2024-03-02T05:15:02;100598.11;;;7.28;83.68
79376;BME280;68846;53.150;18.136;2024-03-02T05:17:30;100607.26;;;7.31;83.61
79376;BME280;68846;53.150;18.136;2024-03-02T05:19:58;100606.58;;;7.31;83.46
79376;BME280;68846;53.150;18.136;2024-03-02T05:22:26;100607.35;;;7.34;83.26
79376;BME280;68846;53.150;18.136;2024-03-02T05:24:55;100610.17;;;7.35;83.39
79376;BME280;68846;53.150;18.136;2024-03-02T05:27:23;100615.08;;;7.36;83.45
79376;BME280;68846;53.150;18.136;2024-03-02T05:29:51;100614.21;;;7.36;83.55
79376;BME280;68846;53.150;18.136;2024-03-02T05:32:20;100617.33;;;7.34;83.41
79376;BME280;68846;53.150;18.136;2024-03-02T05:34:48;100614.66;;;7.32;83.39
79376;BME280;68846;53.150;18.136;2024-03-02T05:37:18;100613.02;;;7.29;83.44
79376;BME280;68846;53.150;18.136;2024-03-02T05:39:46;100610.35;;;7.27;83.61
79376;BME280;68846;53.150;18.136;2024-03-02T05:42:13;100611.40;;;7.28;83.59
79376;BME280;68846;53.150;18.136;2024-03-02T05:44:42;100612.05;;;7.25;83.56
79376;BME280;68846;53.150;18.136;2024-03-02T05:47:09;100617.77;;;7.23;83.49
79376;BME280;68846;53.150;18.136;2024-03-02T05:49:38;100621.36;;;7.19;83.43
79376;BME280;68846;53.150;18.136;2024-03-02T05:52:06;100628.31;;;7.17;83.70
79376;BME280;68846;53.150;18.136;2024-03-02T05:54:34;100631.27;;;7.15;83.57
79376;BME280;68846;53.150;18.136;2024-03-02T05:57:02;100639.66;;;7.15;83.42
79376;BME280;68846;53.150;18.136;2024-03-02T05:59:44;100643.31;;;7.14;83.38
79376;BME280;68846;53.150;18.136;2024-03-02T06:02:12;100639.44;;;7.13;83.94
79376;BME280;68846;53.150;18.136;2024-03-02T06:04:41;100644.66;;;7.13;83.56
79376;BME280;68846;53.150;18.136;2024-03-02T06:07:08;100643.42;;;7.12;83.49
79376;BME280;68846;53.150;18.136;2024-03-02T06:09:36;100649.17;;;7.10;83.73
79376;BME280;68846;53.150;18.136;2024-03-02T06:12:05;100645.51;;;7.11;83.81
79376;BME280;68846;53.150;18.136;2024-03-02T06:14:33;100649.00;;;7.11;84.04
79376;BME280;68846;53.150;18.136;2024-03-02T06:17:00;100646.02;;;7.10;83.65
79376;BME280;68846;53.150;18.136;2024-03-02T06:19:28;100646.71;;;7.10;83.93
79376;BME280;68846;53.150;18.136;2024-03-02T06:21:56;100645.66;;;7.10;83.96
79376;BME280;68846;53.150;18.136;2024-03-02T06:24:24;100646.38;;;7.11;83.95
79376;BME280;68846;53.150;18.136;2024-03-02T06:26:53;100650.42;;;7.11;84.06
79376;BME280;68846;53.150;18.136;2024-03-02T06:29:22;100646.94;;;7.13;84.06
79376;BME280;68846;53.150;18.136;2024-03-02T06:31:49;100646.80;;;7.14;83.82
79376;BME280;68846;53.150;18.136;2024-03-02T06:34:17;100651.76;;;7.15;83.86
79376;BME280;68846;53.150;18.136;2024-03-02T06:36:45;100651.47;;;7.19;83.83
79376;BME280;68846;53.150;18.136;2024-03-02T06:39:13;100651.94;;;7.24;83.93
79376;BME280;68846;53.150;18.136;2024-03-02T06:41:41;100656.61;;;7.28;83.42
79376;BME280;68846;53.150;18.136;2024-03-02T06:44:10;100656.54;;;7.32;83.65
79376;BME280;68846;53.150;18.136;2024-03-02T06:46:37;100652.95;;;7.36;83.42
79376;BME280;68846;53.150;18.136;2024-03-02T06:49:05;100650.60;;;7.41;83.46
79376;BME280;68846;53.150;18.136;2024-03-02T06:51:34;100645.95;;;7.44;83.57
79376;BME280;68846;53.150;18.136;2024-03-02T06:54:02;100644.27;;;7.47;83.22
79376;BME280;68846;53.150;18.136;2024-03-02T06:56:29;100637.83;;;7.49;83.29
79376;BME280;68846;53.150;18.136;2024-03-02T06:58:58;100633.17;;;7.53;83.44
79376;BME280;68846;53.150;18.136;2024-03-02T07:01:26;100628.86;;;7.56;83.59
79376;BME280;68846;53.150;18.136;2024-03-02T07:03:55;100633.66;;;7.59;83.24
79376;BME280;68846;53.150;18.136;2024-03-02T07:06:23;100638.40;;;7.60;83.24
79376;BME280;68846;53.150;18.136;2024-03-02T07:08:52;100648.53;;;7.58;83.06
79376;BME280;68846;53.150;18.136;2024-03-02T07:11:20;100655.45;;;7.54;83.12
79376;BME280;68846;53.150;18.136;2024-03-02T07:13:48;100647.70;;;7.52;83.28
79376;BME280;68846;53.150;18.136;2024-03-02T07:16:15;100646.98;;;7.52;82.95
79376;BME280;68846;53.150;18.136;2024-03-02T07:18:56;100654.36;;;7.52;83.33
79376;BME280;68846;53.150;18.136;2024-03-02T07:21:24;100656.81;;;7.52;83.05
79376;BME280;68846;53.150;18.136;2024-03-02T07:23:52;100653.52;;;7.54;83.37
79376;BME280;68846;53.150;18.136;2024-03-02T07:26:20;100646.05;;;7.57;83.34
79376;BME280;68846;53.150;18.136;2024-03-02T07:28:48;100645.55;;;7.58;82.90
79376;BME280;68846;53.150;18.136;2024-03-02T07:31:16;100660.34;;;7.61;82.98
79376;BME280;68846;53.150;18.136;2024-03-02T07:33:45;100675.11;;;7.63;83.03
79376;BME280;68846;53.150;18.136;2024-03-02T07:36:14;100684.26;;;7.64;82.94
79376;BME280;68846;53.150;18.136;2024-03-02T07:38:43;100681.11;;;7.64;82.72
79376;BME280;68846;53.150;18.136;2024-03-02T07:41:12;100676.56;;;7.66;83.04
79376;BME280;68846;53.150;18.136;2024-03-02T07:43:40;100678.05;;;7.69;83.14
79376;BME280;68846;53.150;18.136;2024-03-02T07:46:07;100677.27;;;7.73;83.22
79376;BME280;68846;53.150;18.136;2024-03-02T07:48:35;100678.95;;;7.78;83.03
79376;BME280;68846;53.150;18.136;2024-03-02T07:51:03;100680.45;;;7.83;82.82
79376;BME280;68846;53.150;18.136;2024-03-02T07:53:31;100670.45;;;7.90;83.09
79376;BME280;68846;53.150;18.136;2024-03-02T07:56:54;100662.88;;;7.97;83.41
79376;BME280;68846;53.150;18.136;2024-03-02T07:59:22;100662.96;;;8.09;83.23
79376;BME280;68846;53.150;18.136;2024-03-02T08:06:26;100669.71;;;8.31;82.84
79376;BME280;68846;53.150;18.136;2024-03-02T08:08:58;100671.96;;;8.37;82.64
79376;BME280;68846;53.150;18.136;2024-03-02T08:11:27;100675.75;;;8.41;82.28
79376;BME280;68846;53.150;18.136;2024-03-02T08:13:55;100679.01;;;8.47;82.53
79376;BME280;68846;53.150;18.136;2024-03-02T08:16:23;100688.29;;;8.54;82.68
79376;BME280;68846;53.150;18.136;2024-03-02T08:18:51;100689.98;;;8.61;81.91
79376;BME280;68846;53.150;18.136;2024-03-02T08:21:19;100693.73;;;8.64;82.07
79376;BME280;68846;53.150;18.136;2024-03-02T08:23:47;100698.52;;;8.67;82.18
79376;BME280;68846;53.150;18.136;2024-03-02T08:26:46;100703.17;;;8.71;82.13
79376;BME280;68846;53.150;18.136;2024-03-02T08:29:14;100699.17;;;8.73;82.01
79376;BME280;68846;53.150;18.136;2024-03-02T08:35:51;100682.16;;;8.84;81.50
79376;BME280;68846;53.150;18.136;2024-03-02T08:38:20;100680.12;;;8.88;81.57
79376;BME280;68846;53.150;18.136;2024-03-02T08:40:49;100677.05;;;8.93;81.61
79376;BME280;68846;53.150;18.136;2024-03-02T08:43:18;100681.54;;;8.99;81.29
79376;BME280;68846;53.150;18.136;2024-03-02T08:45:46;100685.34;;;9.05;81.68
79376;BME280;68846;53.150;18.136;2024-03-02T08:48:14;100690.17;;;9.11;81.18
79376;BME280;68846;53.150;18.136;2024-03-02T08:50:42;100693.77;;;9.15;80.98
79376;BME280;68846;53.150;18.136;2024-03-02T08:53:10;100698.98;;;9.22;81.33
79376;BME280;68846;53.150;18.136;2024-03-02T08:55:38;100695.52;;;9.26;80.70
79376;BME280;68846;53.150;18.136;2024-03-02T08:58:06;100702.02;;;9.25;80.54
79376;BME280;68846;53.150;18.136;2024-03-02T09:00:34;100705.89;;;9.26;80.85
79376;BME280;68846;53.150;18.136;2024-03-02T09:03:02;100709.94;;;9.26;80.79
79376;BME280;68846;53.150;18.136;2024-03-02T09:05:30;100704.48;;;9.24;80.67
79376;BME280;68846;53.150;18.136;2024-03-02T09:07:57;100702.02;;;9.25;80.46
79376;BME280;68846;53.150;18.136;2024-03-02T09:10:25;100705.38;;;9.28;80.72
79376;BME280;68846;53.150;18.136;2024-03-02T09:12:53;100709.48;;;9.30;80.75
79376;BME280;68846;53.150;18.136;2024-03-02T09:15:46;100709.38;;;9.35;80.38
79376;BME280;68846;53.150;18.136;2024-03-02T09:18:15;100714.54;;;9.39;80.05
79376;BME280;68846;53.150;18.136;2024-03-02T09:20:43;100707.37;;;9.41;79.91
79376;BME280;68846;53.150;18.136;2024-03-02T09:23:10;100713.02;;;9.42;80.21
79376;BME280;68846;53.150;18.136;2024-03-02T09:25:38;100722.38;;;9.46;80.26
79376;BME280;68846;53.150;18.136;2024-03-02T09:28:06;100719.44;;;9.48;80.42
79376;BME280;68846;53.150;18.136;2024-03-02T09:30:34;100710.69;;;9.52;80.26
79376;BME280;68846;53.150;18.136;2024-03-02T09:33:03;100710.05;;;9.55;80.19
79376;BME280;68846;53.150;18.136;2024-03-02T09:35:32;100701.64;;;9.57;80.10
79376;BME280;68846;53.150;18.136;2024-03-02T09:38:00;100696.77;;;9.61;80.04
79376;BME280;68846;53.150;18.136;2024-03-02T09:40:28;100700.15;;;9.63;79.77
79376;BME280;68846;53.150;18.136;2024-03-02T09:42:56;100702.81;;;9.65;79.68
79376;BME280;68846;53.150;18.136;2024-03-02T09:45:25;100704.63;;;9.69;79.96
79376;BME280;68846;53.150;18.136;2024-03-02T09:48:19;100708.23;;;9.75;80.05
79376;BME280;68846;53.150;18.136;2024-03-02T09:50:48;100704.27;;;9.80;79.82
79376;BME280;68846;53.150;18.136;2024-03-02T09:57:28;100709.27;;;9.98;79.61
79376;BME280;68846;53.150;18.136;2024-03-02T09:59:56;100709.17;;;10.04;79.14
79376;BME280;68846;53.150;18.136;2024-03-02T10:02:23;100710.13;;;10.09;78.98
79376;BME280;68846;53.150;18.136;2024-03-02T10:04:52;100710.50;;;10.12;78.83
79376;BME280;68846;53.150;18.136;2024-03-02T10:07:20;100716.19;;;10.14;78.52
79376;BME280;68846;53.150;18.136;2024-03-02T10:09:48;100718.66;;;10.17;78.19
79376;BME280;68846;53.150;18.136;2024-03-02T10:17:43;100703.79;;;10.34;78.32
79376;BME280;68846;53.150;18.136;2024-03-02T10:24:38;100698.60;;;10.42;78.25
79376;BME280;68846;53.150;18.136;2024-03-02T10:27:16;100699.23;;;10.52;77.99
79376;BME280;68846;53.150;18.136;2024-03-02T10:30:02;100692.85;;;10.63;77.81
79376;BME280;68846;53.150;18.136;2024-03-02T10:32:31;100689.95;;;10.72;77.48
79376;BME280;68846;53.150;18.136;2024-03-02T10:34:59;100691.64;;;10.82;77.73
79376;BME280;68846;53.150;18.136;2024-03-02T10:37:27;100687.15;;;10.92;77.66
79376;BME280;68846;53.150;18.136;2024-03-02T10:40:47;100691.64;;;11.01;77.23
79376;BME280;68846;53.150;18.136;2024-03-02T10:43:17;100680.46;;;11.11;76.92
79376;BME280;68846;53.150;18.136;2024-03-02T10:45:49;100679.58;;;11.13;76.62
79376;BME280;68846;53.150;18.136;2024-03-02T10:48:16;100684.35;;;11.14;76.85
79376;BME280;68846;53.150;18.136;2024-03-02T10:51:40;100688.11;;;11.20;76.48
79376;BME280;68846;53.150;18.136;2024-03-02T10:54:09;100685.34;;;11.27;76.26
79376;BME280;68846;53.150;18.136;2024-03-02T11:00:30;100676.11;;;11.40;75.90
79376;BME280;68846;53.150;18.136;2024-03-02T11:03:20;100679.69;;;11.48;75.69
79376;BME280;68846;53.150;18.136;2024-03-02T11:05:48;100675.15;;;11.55;75.54
79376;BME280;68846;53.150;18.136;2024-03-02T11:08:18;100672.89;;;11.61;75.51
79376;BME280;68846;53.150;18.136;2024-03-02T11:10:57;100669.93;;;11.67;75.48
79376;BME280;68846;53.150;18.136;2024-03-02T11:13:33;100673.69;;;11.75;75.22
79376;BME280;68846;53.150;18.136;2024-03-02T11:20:13;100662.52;;;11.89;74.35
79376;BME280;68846;53.150;18.136;2024-03-02T11:22:42;100665.52;;;11.92;74.27
79376;BME280;68846;53.150;18.136;2024-03-02T11:25:28;100665.02;;;11.97;74.37
79376;BME280;68846;53.150;18.136;2024-03-02T11:33:01;100661.04;;;12.12;74.65
79376;BME280;68846;53.150;18.136;2024-03-02T11:35:41;100662.10;;;12.16;74.38
79376;BME280;68846;53.150;18.136;2024-03-02T11:38:19;100660.71;;;12.20;74.13
79376;BME280;68846;53.150;18.136;2024-03-02T11:40:47;100660.19;;;12.24;74.12
79376;BME280;68846;53.150;18.136;2024-03-02T11:43:15;100661.97;;;12.28;73.87
79376;BME280;68846;53.150;18.136;2024-03-02T11:45:44;100656.69;;;12.31;72.92
79376;BME280;68846;53.150;18.136;2024-03-02T11:48:14;100660.93;;;12.33;73.06
79376;BME280;68846;53.150;18.136;2024-03-02T11:50:48;100661.28;;;12.34;72.93
79376;BME280;68846;53.150;18.136;2024-03-02T11:53:30;100657.75;;;12.33;71.85
79376;BME280;68846;53.150;18.136;2024-03-02T11:56:02;100652.11;;;12.32;71.44
79376;BME280;68846;53.150;18.136;2024-03-02T11:58:34;100646.80;;;12.32;72.44
79376;BME280;68846;53.150;18.136;2024-03-02T12:01:04;100647.88;;;12.36;72.30
79376;BME280;68846;53.150;18.136;2024-03-02T12:03:32;100648.41;;;12.40;72.23
79376;BME280;68846;53.150;18.136;2024-03-02T12:06:00;100653.91;;;12.47;71.82
79376;BME280;68846;53.150;18.136;2024-03-02T12:08:28;100651.29;;;12.54;71.61
79376;BME280;68846;53.150;18.136;2024-03-02T12:11:01;100651.83;;;12.63;71.19
79376;BME280;68846;53.150;18.136;2024-03-02T12:13:29;100649.02;;;12.71;71.70
79376;BME280;68846;53.150;18.136;2024-03-02T12:15:57;100647.09;;;12.82;71.88
79376;BME280;68846;53.150;18.136;2024-03-02T12:18:25;100649.23;;;12.93;71.25
79376;BME280;68846;53.150;18.136;2024-03-02T12:20:53;100648.88;;;13.03;71.11
79376;BME280;68846;53.150;18.136;2024-03-02T12:23:26;100650.30;;;13.12;70.44
79376;BME280;68846;53.150;18.136;2024-03-02T12:25:54;100649.23;;;13.16;70.02
79376;BME280;68846;53.150;18.136;2024-03-02T12:28:23;100647.98;;;13.19;70.42
79376;BME280;68846;53.150;18.136;2024-03-02T12:30:51;100646.08;;;13.23;69.88
79376;BME280;68846;53.150;18.136;2024-03-02T12:33:19;100643.95;;;13.23;69.81
79376;BME280;68846;53.150;18.136;2024-03-02T12:35:49;100643.60;;;13.23;70.03
79376;BME280;68846;53.150;18.136;2024-03-02T12:38:17;100639.00;;;13.26;69.57
79376;BME280;68846;53.150;18.136;2024-03-02T12:40:48;100635.45;;;13.30;68.66
79376;BME280;68846;53.150;18.136;2024-03-02T12:43:16;100634.56;;;13.31;68.48
79376;BME280;68846;53.150;18.136;2024-03-02T12:45:45;100637.40;;;13.34;68.51
79376;BME280;68846;53.150;18.136;2024-03-02T12:48:13;100635.98;;;13.36;68.17
79376;BME280;68846;53.150;18.136;2024-03-02T12:50:41;100639.16;;;13.35;68.43
79376;BME280;68846;53.150;18.136;2024-03-02T12:53:15;100638.81;;;13.34;69.46
79376;BME280;68846;53.150;18.136;2024-03-02T12:55:43;100639.16;;;13.37;70.10
79376;BME280;68846;53.150;18.136;2024-03-02T12:58:22;100634.93;;;13.38;69.73
79376;BME280;68846;53.150;18.136;2024-03-02T13:00:50;100636.16;;;13.36;69.74
79376;BME280;68846;53.150;18.136;2024-03-02T13:03:36;100644.13;;;13.29;69.67
79376;BME280;68846;53.150;18.136;2024-03-02T13:06:06;100646.09;;;13.27;69.74
79376;BME280;68846;53.150;18.136;2024-03-02T13:08:34;100643.95;;;13.27;69.82
79376;BME280;68846;53.150;18.136;2024-03-02T13:11:02;100640.77;;;13.25;69.72
79376;BME280;68846;53.150;18.136;2024-03-02T13:13:31;100644.28;;;13.19;69.60
79376;BME280;68846;53.150;18.136;2024-03-02T13:15:59;100643.56;;;13.18;69.86
79376;BME280;68846;53.150;18.136;2024-03-02T13:18:29;100644.65;;;13.28;69.80
79376;BME280;68846;53.150;18.136;2024-03-02T13:20:56;100646.23;;;13.33;69.61
79376;BME280;68846;53.150;18.136;2024-03-02T13:23:24;100639.17;;;13.33;69.50
79376;BME280;68846;53.150;18.136;2024-03-02T13:25:52;100637.22;;;13.33;69.74
79376;BME280;68846;53.150;18.136;2024-03-02T13:28:20;100637.56;;;13.36;69.78
79376;BME280;68846;53.150;18.136;2024-03-02T13:30:48;100634.20;;;13.40;69.45
79376;BME280;68846;53.150;18.136;2024-03-02T13:33:16;100637.92;;;13.36;68.78
79376;BME280;68846;53.150;18.136;2024-03-02T13:35:50;100633.34;;;13.26;69.22
79376;BME280;68846;53.150;18.136;2024-03-02T13:38:19;100636.17;;;13.27;69.53
79376;BME280;68846;53.150;18.136;2024-03-02T13:40:49;100634.73;;;13.30;69.56